KSPS/SPS METAR and TAF weather

Enter ICAO airport designator
Station Type Date Time Source
KSPS METAR 2022/01/18 06:52 UTC NOAA

KSPS 180652Z 18010KT 10SM CLR 08/M04 A2990 RMK AO2 SLP120 T00781039


Station Type Date Time Source
KSPS Decoded METAR 2022/01/18 06:52 UTC NOAA

WICHITA FALLS SHEPPARD AFB, TX, United States (KSPS) 33-59N 98-30W 308M
Jan 18, 2022 - 01:52 AM EST / 2022.01.18 0652 UTC
Wind: from the S (180 degrees) at 12 MPH (10 KT):0
Visibility: 10 mile(s):0
Sky conditions: clear
Temperature: 46.0 F (7.8 C)
Dew Point: 25.0 F (-3.9 C)
Relative Humidity: 43%
Pressure (altimeter): 29.9 in. Hg (1012 hPa)
ob: KSPS 180652Z 18010KT 10SM CLR 08/M04 A2990 RMK AO2 SLP120 T00781039
cycle: 7

Station Type Date Time Source
KSPS TAF 2022/01/18 06:22 UTC NOAA

TAF KSPS 180520Z 1806/1906 16012KT P6SM BKN250
FM181500 21016G26KT P6SM SCT150 BKN250
FM190000 28008KT P6SM SCT150

Example: see airport list